Time;durP1;ratioP1;P1;durP2;ratioP2;P2;SDS_P1;SDS_P2;PMS_P1;PMS_P2;Temp;Humidity;BMP_temperature;BMP_pressure;BME280_temperature;BME280_humidity;BME280_pressure;Samples;Min_cycle;Max_cycle;Signal;HPM_P1;HPM_P2
2023/03/26 00:00:08;;;;;;;8.20;1.87;;;;;;;;;;492592;28;1211;-77
2023/03/26 00:00:30;;;;;;;8.20;1.95;;;;;;;;;;502347;28;1167;-77
2023/03/26 00:00:49;;;;;;;7.85;2.00;;;;;;;;;;490996;28;1093;-77
2023/03/26 00:01:06;;;;;;;8.15;1.90;;;;;;;;;;480163;28;1441;-77
2023/03/26 00:01:25;;;;;;;7.72;1.90;;;;;;;;;;497800;28;1234;-77
2023/03/26 00:01:51;;;;;;;8.80;2.10;;;;;;;;;;495772;28;1397;-77
2023/03/26 00:02:07;;;;;;;7.43;1.95;;;;;;;;;;490303;28;1220;-80
2023/03/26 00:02:23;;;;;;;7.85;1.92;;;;;;;;;;496973;28;1411;-77
2023/03/26 00:02:39;;;;;;;7.70;1.80;;;;;;;;;;497318;28;1008;-77
2023/03/26 00:03:23;;;;;;;8.73;1.90;;;;;;;;;;487424;28;1102;-77
2023/03/26 00:03:53;;;;;;;10.00;2.03;;;;;;;;;;495358;28;1500;-78
2023/03/26 00:04:14;;;;;;;9.00;2.00;;;;;;;;;;495471;28;1205;-76
2023/03/26 00:04:41;;;;;;;8.85;2.10;;;;;;;;;;486671;28;1925;-76
2023/03/26 00:04:56;;;;;;;8.02;1.95;;;;;;;;;;508740;28;1342;-76
2023/03/26 00:05:13;;;;;;;9.68;2.00;;;;;;;;;;501529;28;1220;-77
2023/03/26 00:05:49;;;;;;;9.68;1.90;;;;;;;;;;510357;28;1183;-76
2023/03/26 00:06:08;;;;;;;8.05;2.03;;;;;;;;;;512967;28;1302;-76
2023/03/26 00:06:25;;;;;;;9.90;2.10;;;;;;;;;;512630;28;922;-77
2023/03/26 00:06:41;;;;;;;8.68;1.95;;;;;;;;;;512398;28;1162;-77
2023/03/26 00:07:09;;;;;;;6.85;2.08;;;;;;;;;;508498;28;1173;-77
2023/03/26 00:07:36;;;;;;;7.80;2.00;;;;;;;;;;505125;28;1313;-76
2023/03/26 00:08:09;;;;;;;7.35;1.92;;;;;;;;;;486446;28;1264;-77
2023/03/26 00:08:25;;;;;;;7.43;2.08;;;;;;;;;;504679;28;1136;-77
2023/03/26 00:09:01;;;;;;;6.47;2.20;;;;;;;;;;493141;28;1215;-76
2023/03/26 00:09:28;;;;;;;7.68;1.90;;;;;;;;;;501677;28;1979;-77
2023/03/26 00:10:25;;;;;;;7.47;2.13;;;;;;;;;;507038;28;1359;-75
2023/03/26 00:11:00;;;;;;;8.30;2.05;;;;;;;;;;508101;28;1178;-76
2023/03/26 00:11:26;;;;;;;8.55;2.00;;;;;;;;;;508675;28;1175;-76
2023/03/26 00:12:03;;;;;;;;;;;;;;;;;;;;;
2023/03/26 00:12:46;;;;;;;7.43;1.92;;;;;;;;;;504108;28;891;-76
2023/03/26 00:13:01;;;;;;;9.63;2.50;;;;;;;;;;511655;28;1223;-78
2023/03/26 00:13:23;;;;;;;9.27;2.20;;;;;;;;;;510035;27;1100;-76
2023/03/26 00:13:42;;;;;;;9.20;2.20;;;;;;;;;;512437;27;1096;-76
2023/03/26 00:14:04;;;;;;;8.75;2.20;;;;;;;;;;513067;27;1493;-76
2023/03/26 00:14:51;;;;;;;8.35;2.03;;;;;;;;;;506361;28;1393;-76
2023/03/26 00:15:21;;;;;;;8.68;2.17;;;;;;;;;;503474;28;1179;-75
2023/03/26 00:16:00;;;;;;;6.05;1.90;;;;;;;;;;510210;28;1054;-76
2023/03/26 00:16:37;;;;;;;8.18;2.05;;;;;;;;;;500788;28;1367;-76
2023/03/26 00:16:54;;;;;;;9.35;2.20;;;;;;;;;;514119;27;1131;-77
2023/03/26 00:17:09;;;;;;;9.90;2.30;;;;;;;;;;512292;27;1251;-77
2023/03/26 00:17:38;;;;;;;8.07;2.23;;;;;;;;;;514717;28;1311;-76
2023/03/26 00:17:56;;;;;;;8.15;2.35;;;;;;;;;;510345;27;1060;-75
2023/03/26 00:18:20;;;;;;;8.10;2.13;;;;;;;;;;511453;27;1265;-78
2023/03/26 00:18:39;;;;;;;8.32;2.08;;;;;;;;;;512243;27;1232;-76
2023/03/26 00:19:39;;;;;;;8.98;2.38;;;;;;;;;;511005;28;2402;-77
2023/03/26 00:19:56;;;;;;;9.48;2.47;;;;;;;;;;504797;28;1141;-79
2023/03/26 00:20:12;;;;;;;9.88;2.40;;;;;;;;;;506949;28;1109;-77
2023/03/26 00:20:34;;;;;;;8.63;2.10;;;;;;;;;;511417;28;1291;-77
2023/03/26 00:20:57;;;;;;;7.75;1.98;;;;;;;;;;515302;27;1159;-77
2023/03/26 00:21:29;;;;;;;9.57;2.30;;;;;;;;;;511640;28;1265;-78
2023/03/26 00:21:47;;;;;;;9.82;2.17;;;;;;;;;;517728;28;1323;-77
2023/03/26 00:22:06;;;;;;;9.10;2.35;;;;;;;;;;517120;28;1539;-77
2023/03/26 00:22:25;;;;;;;8.48;2.10;;;;;;;;;;509397;28;1383;-75
2023/03/26 00:22:44;;;;;;;9.70;2.22;;;;;;;;;;511274;28;1133;-77
2023/03/26 00:23:06;;;;;;;8.57;2.10;;;;;;;;;;494707;28;990;-76
2023/03/26 00:23:22;;;;;;;9.35;2.30;;;;;;;;;;499583;28;1297;-77
2023/03/26 00:23:48;;;;;;;9.40;2.30;;;;;;;;;;502823;28;1713;-76
2023/03/26 00:24:08;;;;;;;9.57;2.30;;;;;;;;;;508860;28;947;-77
2023/03/26 00:24:32;;;;;;;8.90;2.15;;;;;;;;;;511763;28;1254;-77
2023/03/26 00:24:54;;;;;;;7.80;2.00;;;;;;;;;;486117;28;1427;-77
2023/03/26 00:25:10;;;;;;;7.85;1.95;;;;;;;;;;492574;28;1052;-77
2023/03/26 00:25:26;;;;;;;8.55;2.00;;;;;;;;;;499546;28;1315;-76
2023/03/26 00:26:09;;;;;;;8.88;2.13;;;;;;;;;;492898;28;1094;-76
2023/03/26 00:27:07;;;;;;;6.90;2.10;;;;;;;;;;503474;28;1314;-76
2023/03/26 00:27:12;;;;;;;9.13;2.30;;;;;;;;;;508736;28;1226;-76
2023/03/26 00:27:36;;;;;;;7.72;2.05;;;;;;;;;;512669;28;1246;-77
2023/03/26 00:28:00;;;;;;;8.73;2.20;;;;;;;;;;501209;28;1194;-76
2023/03/26 00:28:30;;;;;;;8.30;2.15;;;;;;;;;;490157;28;1311;-76
2023/03/26 00:28:49;;;;;;;7.55;1.90;;;;;;;;;;491709;28;1187;-76
2023/03/26 00:29:07;;;;;;;8.52;1.95;;;;;;;;;;486043;28;1098;-78
2023/03/26 00:29:36;;;;;;;;;;;;;;;;;;;;;
2023/03/26 00:30:05;;;;;;;7.75;2.08;;;;;;;;;;504033;28;1305;-77
2023/03/26 00:30:29;;;;;;;7.70;2.17;;;;;;;;;;504699;28;1111;-77
2023/03/26 00:30:54;;;;;;;8.57;2.30;;;;;;;;;;501250;28;1229;-76
2023/03/26 00:31:11;;;;;;;9.07;2.20;;;;;;;;;;503587;28;934;-77
2023/03/26 00:31:30;;;;;;;8.27;2.20;;;;;;;;;;508058;28;1330;-77
2023/03/26 00:32:48;;;;;;;8.43;2.13;;;;;;;;;;494482;28;1991;-76
2023/03/26 00:33:03;;;;;;;9.00;2.10;;;;;;;;;;489206;28;1297;-77
2023/03/26 00:33:19;;;;;;;8.73;2.03;;;;;;;;;;510132;28;1440;-76
2023/03/26 00:33:44;;;;;;;8.70;2.20;;;;;;;;;;507784;28;1207;-76
2023/03/26 00:34:04;;;;;;;9.15;2.10;;;;;;;;;;493814;28;1372;-76
2023/03/26 00:34:25;;;;;;;8.02;2.22;;;;;;;;;;501101;28;1049;-77
2023/03/26 00:34:45;;;;;;;8.52;2.15;;;;;;;;;;484105;28;1230;-77
2023/03/26 00:35:03;;;;;;;8.15;2.13;;;;;;;;;;489562;28;1216;-77
2023/03/26 00:35:22;;;;;;;8.05;2.25;;;;;;;;;;503581;28;1136;-76
2023/03/26 00:35:38;;;;;;;7.88;2.17;;;;;;;;;;484335;28;1597;-76
2023/03/26 00:35:59;;;;;;;9.52;2.47;;;;;;;;;;489679;28;1242;-77
2023/03/26 00:36:20;;;;;;;10.50;2.63;;;;;;;;;;503694;28;1196;-76
2023/03/26 00:36:41;;;;;;;9.48;2.50;;;;;;;;;;486342;28;1368;-76
2023/03/26 00:37:07;;;;;;;9.05;2.25;;;;;;;;;;491191;28;1175;-76
2023/03/26 00:37:26;;;;;;;7.88;2.20;;;;;;;;;;497154;28;1423;-76
2023/03/26 00:37:42;;;;;;;9.77;2.50;;;;;;;;;;502752;28;1374;-77
2023/03/26 00:38:00;;;;;;;9.95;2.30;;;;;;;;;;501763;28;1429;-77
2023/03/26 00:38:19;;;;;;;9.82;2.30;;;;;;;;;;489351;28;1200;-77
2023/03/26 00:38:38;;;;;;;8.15;2.10;;;;;;;;;;501723;28;1297;-77
2023/03/26 00:39:04;;;;;;;9.98;2.33;;;;;;;;;;504808;28;1544;-76
2023/03/26 00:39:22;;;;;;;7.22;2.00;;;;;;;;;;492455;28;1437;-77
2023/03/26 00:40:06;;;;;;;8.43;2.25;;;;;;;;;;507202;28;2037;-77
2023/03/26 00:41:04;;;;;;;9.48;2.28;;;;;;;;;;495111;28;1969;-77
2023/03/26 00:41:24;;;;;;;10.10;2.45;;;;;;;;;;505075;28;1148;-77
2023/03/26 00:42:16;;;;;;;10.00;2.42;;;;;;;;;;513378;28;1308;-77
2023/03/26 00:42:41;;;;;;;8.30;2.30;;;;;;;;;;488851;27;2000;-77
2023/03/26 00:43:09;;;;;;;9.40;2.13;;;;;;;;;;494111;28;1247;-77
2023/03/26 00:43:31;;;;;;;7.68;2.20;;;;;;;;;;491394;28;1335;-77
2023/03/26 00:44:42;;;;;;;9.80;2.38;;;;;;;;;;481752;28;1047;-77
2023/03/26 00:45:21;;;;;;;9.40;2.50;;;;;;;;;;495569;28;1311;-77
2023/03/26 00:46:05;;;;;;;9.35;2.30;;;;;;;;;;479938;28;1876;-77
2023/03/26 00:46:24;;;;;;;8.50;2.05;;;;;;;;;;496467;28;1145;-77
2023/03/26 00:46:45;;;;;;;8.90;2.22;;;;;;;;;;477505;28;1611;-76
2023/03/26 00:47:03;;;;;;;8.15;2.30;;;;;;;;;;479357;28;1219;-78
2023/03/26 00:47:39;;;;;;;8.23;2.08;;;;;;;;;;502590;28;1420;-77
2023/03/26 00:48:04;;;;;;;9.48;2.20;;;;;;;;;;477806;28;1090;-78
2023/03/26 00:48:28;;;;;;;9.52;2.28;;;;;;;;;;490976;28;1090;-77
2023/03/26 00:49:02;;;;;;;8.88;2.30;;;;;;;;;;472950;28;1257;-78
2023/03/26 00:49:45;;;;;;;8.60;2.05;;;;;;;;;;496635;28;1512;-78
2023/03/26 00:50:04;;;;;;;8.43;1.95;;;;;;;;;;491227;28;1167;-77
2023/03/26 00:50:22;;;;;;;8.52;2.33;;;;;;;;;;493511;28;1172;-77
2023/03/26 00:50:48;;;;;;;8.98;2.25;;;;;;;;;;505524;28;1224;-77
2023/03/26 00:51:07;;;;;;;8.73;2.10;;;;;;;;;;481529;28;1266;-78
2023/03/26 00:51:27;;;;;;;9.05;2.08;;;;;;;;;;494619;28;1148;-78
2023/03/26 00:51:42;;;;;;;10.60;2.20;;;;;;;;;;479883;28;1068;-78
2023/03/26 00:52:28;;;;;;;10.88;2.20;;;;;;;;;;492995;28;1342;-77
2023/03/26 00:53:22;;;;;;;8.75;2.22;;;;;;;;;;493551;28;1294;-77
2023/03/26 00:53:40;;;;;;;8.85;2.33;;;;;;;;;;483783;28;1236;-77
2023/03/26 00:54:07;;;;;;;10.07;2.50;;;;;;;;;;496439;28;1526;-77
2023/03/26 00:54:28;;;;;;;10.43;2.47;;;;;;;;;;495386;28;1231;-77
2023/03/26 00:54:49;;;;;;;8.63;2.33;;;;;;;;;;499775;28;1153;-77
2023/03/26 00:55:05;;;;;;;9.18;2.20;;;;;;;;;;489660;28;1266;-77
2023/03/26 00:55:23;;;;;;;8.02;2.20;;;;;;;;;;505369;28;1254;-77
2023/03/26 00:56:05;;;;;;;8.45;2.28;;;;;;;;;;511393;28;1574;-78
2023/03/26 00:56:27;;;;;;;10.13;2.20;;;;;;;;;;497751;28;1239;-77
2023/03/26 00:56:54;;;;;;;8.65;2.20;;;;;;;;;;489126;28;1172;-78
2023/03/26 00:57:31;;;;;;;8.27;2.40;;;;;;;;;;499158;28;1287;-77
2023/03/26 00:57:54;;;;;;;8.75;2.20;;;;;;;;;;502402;28;1276;-76
2023/03/26 00:58:12;;;;;;;10.75;2.38;;;;;;;;;;480442;28;1187;-77
2023/03/26 00:58:48;;;;;;;9.20;2.47;;;;;;;;;;484662;28;1304;-77
2023/03/26 00:59:29;;;;;;;9.02;2.30;;;;;;;;;;477744;28;1692;-76
2023/03/26 00:59:50;;;;;;;10.20;2.33;;;;;;;;;;474393;28;1249;-77
2023/03/26 01:00:17;;;;;;;10.15;2.30;;;;;;;;;;480398;28;1225;-76
2023/03/26 01:00:38;;;;;;;9.23;2.10;;;;;;;;;;480742;28;1402;-77
2023/03/26 01:00:58;;;;;;;9.80;2.40;;;;;;;;;;489316;28;1386;-77
2023/03/26 01:01:16;;;;;;;8.02;2.17;;;;;;;;;;490365;28;1300;-77
2023/03/26 01:01:45;;;;;;;8.63;2.40;;;;;;;;;;494339;28;1213;-76
2023/03/26 01:02:09;;;;;;;8.70;2.43;;;;;;;;;;497538;28;1489;-77
2023/03/26 01:02:26;;;;;;;10.25;2.50;;;;;;;;;;500706;28;1239;-77
2023/03/26 01:02:45;;;;;;;9.27;2.08;;;;;;;;;;489289;28;1229;-77
2023/03/26 01:03:01;;;;;;;9.55;2.40;;;;;;;;;;476855;28;1269;-77
2023/03/26 01:03:35;;;;;;;9.10;2.53;;;;;;;;;;493924;28;1115;-78
2023/03/26 01:04:03;;;;;;;7.82;2.08;;;;;;;;;;480304;28;1263;-77
2023/03/26 01:04:43;;;;;;;10.98;2.20;;;;;;;;;;490827;28;1676;-77
2023/03/26 01:05:28;;;;;;;9.07;2.30;;;;;;;;;;497721;28;1387;-77
2023/03/26 01:06:01;;;;;;;;;;;;;;;;;;;;;
2023/03/26 01:06:32;;;;;;;10.02;2.25;;;;;;;;;;497713;28;1000;-77
2023/03/26 01:07:03;;;;;;;9.40;2.17;;;;;;;;;;493988;28;1170;-77
2023/03/26 01:07:27;;;;;;;8.65;2.00;;;;;;;;;;497638;28;1062;-78
2023/03/26 01:07:52;;;;;;;8.98;2.35;;;;;;;;;;494038;28;1227;-77
2023/03/26 01:08:13;;;;;;;9.07;2.25;;;;;;;;;;494906;28;1182;-77
2023/03/26 01:08:37;;;;;;;8.45;2.20;;;;;;;;;;482344;28;1874;-77
2023/03/26 01:08:59;;;;;;;8.13;2.10;;;;;;;;;;489802;28;1350;-77
2023/03/26 01:09:24;;;;;;;10.18;2.35;;;;;;;;;;488111;28;1305;-76
2023/03/26 01:09:49;;;;;;;8.35;2.20;;;;;;;;;;491427;28;1227;-77
2023/03/26 01:10:17;;;;;;;8.95;2.40;;;;;;;;;;492346;28;1179;-77
2023/03/26 01:11:16;;;;;;;9.77;2.30;;;;;;;;;;482959;28;1210;-78
2023/03/26 01:11:49;;;;;;;9.80;2.30;;;;;;;;;;477550;28;1615;-78
2023/03/26 01:12:06;;;;;;;7.80;2.13;;;;;;;;;;485765;28;1240;-77
2023/03/26 01:12:27;;;;;;;7.72;2.13;;;;;;;;;;490133;28;1203;-77
2023/03/26 01:12:43;;;;;;;8.43;2.33;;;;;;;;;;484560;28;1347;-77
2023/03/26 01:13:01;;;;;;;6.70;2.00;;;;;;;;;;490912;28;1260;-77
2023/03/26 01:14:10;;;;;;;8.27;2.00;;;;;;;;;;493083;28;881;-77
2023/03/26 01:14:28;;;;;;;8.32;2.00;;;;;;;;;;501137;28;1262;-77
2023/03/26 01:15:25;;;;;;;8.95;2.15;;;;;;;;;;501114;28;1319;-76
2023/03/26 01:16:01;;;;;;;9.65;2.20;;;;;;;;;;502036;28;1625;-77
2023/03/26 01:16:40;;;;;;;9.30;2.25;;;;;;;;;;495782;28;1223;-77
2023/03/26 01:17:03;;;;;;;8.75;2.17;;;;;;;;;;470182;28;1489;-77
2023/03/26 01:17:24;;;;;;;9.40;2.22;;;;;;;;;;491514;28;1214;-75
2023/03/26 01:17:59;;;;;;;9.52;2.38;;;;;;;;;;476201;28;1413;-75
2023/03/26 01:19:09;;;;;;;9.00;2.30;;;;;;;;;;478689;28;1212;-75
2023/03/26 01:20:45;;;;;;;10.20;2.53;;;;;;;;;;474833;29;1067;-76
2023/03/26 01:21:04;;;;;;;9.43;2.35;;;;;;;;;;474261;29;1383;-76
2023/03/26 01:21:40;;;;;;;7.45;2.20;;;;;;;;;;485586;29;1240;-76
2023/03/26 01:22:03;;;;;;;10.02;2.28;;;;;;;;;;485153;29;1238;-76
2023/03/26 01:22:57;;;;;;;9.23;2.38;;;;;;;;;;484867;29;1250;-77
2023/03/26 01:23:27;;;;;;;8.70;2.10;;;;;;;;;;482595;29;1181;-76
2023/03/26 01:23:49;;;;;;;9.05;2.33;;;;;;;;;;483018;29;1207;-76
2023/03/26 01:24:19;;;;;;;;;;;;;;;;;;;;;
2023/03/26 01:24:40;;;;;;;11.98;2.55;;;;;;;;;;478711;29;1105;-76
2023/03/26 01:27:23;;;;;;;11.75;2.47;;;;;;;;;;460595;29;1389;-76
2023/03/26 01:27:49;;;;;;;9.43;2.40;;;;;;;;;;496598;29;1447;-77
2023/03/26 01:28:07;;;;;;;11.45;2.30;;;;;;;;;;493986;29;1239;-76
2023/03/26 01:28:33;;;;;;;12.80;2.40;;;;;;;;;;493567;29;1264;-76
2023/03/26 01:28:54;;;;;;;11.43;2.60;;;;;;;;;;498628;29;1215;-76
2023/03/26 01:29:22;;;;;;;10.95;2.40;;;;;;;;;;496578;29;1247;-76
2023/03/26 01:30:00;;;;;;;9.57;2.40;;;;;;;;;;494985;28;1207;-77
2023/03/26 01:30:40;;;;;;;10.07;2.30;;;;;;;;;;495738;28;1281;-79
2023/03/26 01:31:13;;;;;;;10.57;2.30;;;;;;;;;;500552;29;1209;-78
2023/03/26 01:31:35;;;;;;;10.15;2.40;;;;;;;;;;503017;29;1311;-78
2023/03/26 01:32:11;;;;;;;10.18;2.50;;;;;;;;;;503512;29;1376;-77
2023/03/26 01:32:33;;;;;;;9.57;2.42;;;;;;;;;;502561;29;1182;-78
2023/03/26 01:33:55;;;;;;;10.88;2.50;;;;;;;;;;498309;29;1163;-77
2023/03/26 01:34:19;;;;;;;11.10;2.70;;;;;;;;;;497886;29;1145;-79
2023/03/26 01:36:12;;;;;;;9.30;2.35;;;;;;;;;;496609;29;980;-78
2023/03/26 01:37:01;;;;;;;9.38;2.50;;;;;;;;;;492357;29;1370;-77
2023/03/26 01:37:31;;;;;;;10.10;2.47;;;;;;;;;;493336;29;1321;-77
2023/03/26 01:38:01;;;;;;;8.32;2.17;;;;;;;;;;498829;29;1221;-77
2023/03/26 01:38:47;;;;;;;9.02;2.65;;;;;;;;;;499662;29;1210;-77
2023/03/26 01:39:20;;;;;;;12.10;2.55;;;;;;;;;;495527;29;2086;-78
2023/03/26 01:39:55;;;;;;;9.43;2.35;;;;;;;;;;494650;29;1891;-77
2023/03/26 01:41:25;;;;;;;9.85;2.35;;;;;;;;;;491885;29;1707;-78
2023/03/26 01:41:47;;;;;;;10.30;2.30;;;;;;;;;;488206;29;1105;-78
2023/03/26 01:42:10;;;;;;;12.68;2.20;;;;;;;;;;491933;29;1550;-78
2023/03/26 01:42:35;;;;;;;10.18;2.30;;;;;;;;;;496294;29;1183;-78
2023/03/26 01:42:59;;;;;;;11.15;2.47;;;;;;;;;;495767;29;1232;-78
2023/03/26 01:43:33;;;;;;;10.38;2.50;;;;;;;;;;489195;29;1251;-77
2023/03/26 01:44:02;;;;;;;12.23;2.35;;;;;;;;;;495813;29;1150;-77
2023/03/26 01:44:30;;;;;;;10.73;2.60;;;;;;;;;;492929;29;1185;-78
2023/03/26 01:44:50;;;;;;;7.70;2.30;;;;;;;;;;494152;29;1386;-78
2023/03/26 01:45:12;;;;;;;10.05;2.45;;;;;;;;;;493491;29;1255;-78
2023/03/26 01:45:30;;;;;;;8.57;2.10;;;;;;;;;;492369;29;1759;-78
2023/03/26 01:45:54;;;;;;;8.43;2.30;;;;;;;;;;493996;29;1560;-78
2023/03/26 01:46:12;;;;;;;8.65;2.40;;;;;;;;;;488700;29;1085;-78
2023/03/26 01:46:35;;;;;;;8.57;2.25;;;;;;;;;;493432;29;1140;-78
2023/03/26 01:46:52;;;;;;;8.70;2.40;;;;;;;;;;493962;29;1297;-78
2023/03/26 01:47:08;;;;;;;9.10;2.42;;;;;;;;;;494914;29;1292;-77
2023/03/26 01:47:25;;;;;;;10.38;2.63;;;;;;;;;;495530;29;1315;-78
2023/03/26 01:47:54;;;;;;;9.98;2.47;;;;;;;;;;493802;29;1016;-78
2023/03/26 01:48:56;;;;;;;10.68;2.30;;;;;;;;;;496163;29;1165;-78
2023/03/26 01:49:12;;;;;;;9.27;2.50;;;;;;;;;;490137;29;1069;-78
2023/03/26 01:49:34;;;;;;;9.87;2.50;;;;;;;;;;492865;29;1267;-78
2023/03/26 01:49:50;;;;;;;11.65;2.58;;;;;;;;;;494048;29;1322;-78
2023/03/26 01:50:06;;;;;;;11.23;2.57;;;;;;;;;;492467;29;1104;-78
2023/03/26 01:50:22;;;;;;;10.32;2.42;;;;;;;;;;493544;29;943;-78
2023/03/26 01:50:38;;;;;;;10.52;2.47;;;;;;;;;;494624;29;1266;-78
2023/03/26 01:50:55;;;;;;;10.35;2.40;;;;;;;;;;495353;29;1309;-78
2023/03/26 01:51:11;;;;;;;9.93;2.47;;;;;;;;;;494196;29;1908;-78
2023/03/26 01:51:29;;;;;;;10.40;2.70;;;;;;;;;;494252;29;1162;-79
2023/03/26 01:51:57;;;;;;;9.95;2.47;;;;;;;;;;496811;29;1418;-78
2023/03/26 01:52:29;;;;;;;;;;;;;;;;;;;;;
2023/03/26 01:52:48;;;;;;;11.60;2.53;;;;;;;;;;498517;29;1294;-78
2023/03/26 01:53:07;;;;;;;10.32;2.25;;;;;;;;;;504500;28;1139;-78
2023/03/26 01:53:49;;;;;;;9.45;2.30;;;;;;;;;;498166;28;1237;-77
2023/03/26 01:54:10;;;;;;;8.73;2.30;;;;;;;;;;497935;29;1342;-77
2023/03/26 01:55:05;;;;;;;9.63;2.30;;;;;;;;;;497563;29;1177;-79
2023/03/26 01:55:13;;;;;;;9.00;2.28;;;;;;;;;;497272;29;1360;-78
2023/03/26 01:55:27;;;;;;;8.57;2.30;;;;;;;;;;494428;29;1249;-78
2023/03/26 01:55:52;;;;;;;7.53;2.05;;;;;;;;;;500772;29;1145;-78
2023/03/26 01:56:16;;;;;;;9.90;2.38;;;;;;;;;;497415;29;1050;-78
2023/03/26 01:56:40;;;;;;;9.88;2.50;;;;;;;;;;501015;29;1259;-79
2023/03/26 01:57:02;;;;;;;9.25;2.50;;;;;;;;;;502818;29;1171;-78
2023/03/26 01:57:20;;;;;;;9.23;2.33;;;;;;;;;;498222;29;1268;-79
2023/03/26 01:57:51;;;;;;;8.98;2.33;;;;;;;;;;501400;29;1559;-79
2023/03/26 01:58:14;;;;;;;8.55;2.60;;;;;;;;;;499802;28;1556;-79
2023/03/26 01:58:48;;;;;;;9.02;2.35;;;;;;;;;;500144;29;1275;-78
2023/03/26 01:59:25;;;;;;;11.70;2.50;;;;;;;;;;504865;28;1210;-78
2023/03/26 02:00:11;;;;;;;11.23;2.45;;;;;;;;;;506875;28;1997;-78
2023/03/26 02:00:32;;;;;;;8.98;2.30;;;;;;;;;;509809;28;986;-79
2023/03/26 02:01:01;;;;;;;10.02;2.40;;;;;;;;;;509468;28;1379;-78
2023/03/26 02:01:26;;;;;;;9.13;2.33;;;;;;;;;;504353;28;1293;-78
2023/03/26 02:01:53;;;;;;;7.80;2.50;;;;;;;;;;509544;28;1230;-78
2023/03/26 02:02:16;;;;;;;9.98;2.45;;;;;;;;;;506792;28;1059;-78
2023/03/26 02:03:07;;;;;;;12.10;2.63;;;;;;;;;;509633;28;1346;-78
2023/03/26 02:03:32;;;;;;;7.88;2.22;;;;;;;;;;498190;29;1565;-78
2023/03/26 02:04:07;;;;;;;9.82;2.58;;;;;;;;;;503109;28;1121;-78
2023/03/26 02:04:58;;;;;;;8.98;2.30;;;;;;;;;;501709;28;1179;-80
2023/03/26 02:05:21;;;;;;;11.02;2.50;;;;;;;;;;496899;29;1192;-79
2023/03/26 02:05:57;;;;;;;10.30;2.45;;;;;;;;;;502475;28;1190;-78
2023/03/26 02:06:22;;;;;;;10.55;2.50;;;;;;;;;;496656;29;1287;-79
2023/03/26 02:06:42;;;;;;;10.95;2.30;;;;;;;;;;500220;29;1235;-79
2023/03/26 02:07:35;;;;;;;9.07;2.13;;;;;;;;;;501471;29;1409;-78
2023/03/26 02:08:00;;;;;;;9.23;2.50;;;;;;;;;;496577;29;1249;-79
2023/03/26 02:08:38;;;;;;;9.82;2.33;;;;;;;;;;494591;29;1649;-78
2023/03/26 02:09:05;;;;;;;9.68;2.40;;;;;;;;;;499060;29;1200;-78
2023/03/26 02:09:44;;;;;;;10.10;2.45;;;;;;;;;;500566;29;1262;-78
2023/03/26 02:10:20;;;;;;;9.65;2.40;;;;;;;;;;501476;29;1186;-78
2023/03/26 02:10:43;;;;;;;9.77;2.45;;;;;;;;;;496419;29;2803;-78
2023/03/26 02:11:04;;;;;;;9.85;2.35;;;;;;;;;;501917;29;1203;-78
2023/03/26 02:12:25;;;;;;;10.93;2.60;;;;;;;;;;491326;29;1191;-78
2023/03/26 02:12:48;;;;;;;10.15;2.33;;;;;;;;;;494724;29;1275;-78
2023/03/26 02:13:04;;;;;;;10.20;2.47;;;;;;;;;;496857;29;905;-79
2023/03/26 02:13:24;;;;;;;11.00;2.67;;;;;;;;;;495305;29;1120;-79
2023/03/26 02:13:42;;;;;;;10.80;2.47;;;;;;;;;;500802;29;1253;-78
2023/03/26 02:13:58;;;;;;;10.85;2.58;;;;;;;;;;500481;29;1164;-77
2023/03/26 02:14:14;;;;;;;10.75;2.63;;;;;;;;;;498661;29;1119;-78
2023/03/26 02:14:33;;;;;;;10.48;2.45;;;;;;;;;;498290;29;1316;-78
2023/03/26 02:14:53;;;;;;;11.05;2.60;;;;;;;;;;501370;29;1067;-78
2023/03/26 02:15:10;;;;;;;10.55;2.60;;;;;;;;;;501144;29;1184;-78
2023/03/26 02:15:26;;;;;;;11.68;2.60;;;;;;;;;;500486;29;1192;-78
2023/03/26 02:16:03;;;;;;;11.80;2.55;;;;;;;;;;501450;29;1051;-78
2023/03/26 02:16:39;;;;;;;10.10;2.60;;;;;;;;;;496078;29;1378;-78
2023/03/26 02:17:01;;;;;;;9.60;2.30;;;;;;;;;;499677;29;1697;-78
2023/03/26 02:17:18;;;;;;;13.68;2.97;;;;;;;;;;494915;29;1219;-78
2023/03/26 02:17:35;;;;;;;11.45;2.50;;;;;;;;;;502589;29;1352;-78
2023/03/26 02:17:51;;;;;;;10.07;2.63;;;;;;;;;;502712;29;1201;-78
2023/03/26 02:18:12;;;;;;;11.10;2.88;;;;;;;;;;502137;28;1473;-78
2023/03/26 02:18:37;;;;;;;10.48;2.42;;;;;;;;;;505569;28;1111;-78
2023/03/26 02:19:03;;;;;;;11.50;2.72;;;;;;;;;;507324;28;1118;-78
2023/03/26 02:19:20;;;;;;;10.15;2.53;;;;;;;;;;499903;28;1292;-78
2023/03/26 02:19:40;;;;;;;10.55;2.58;;;;;;;;;;506647;28;1954;-78
2023/03/26 02:19:56;;;;;;;9.55;2.60;;;;;;;;;;504446;28;1110;-79
2023/03/26 02:20:13;;;;;;;9.57;2.50;;;;;;;;;;502069;28;1032;-80
2023/03/26 02:20:51;;;;;;;9.27;2.50;;;;;;;;;;505196;28;947;-78
2023/03/26 02:21:11;;;;;;;11.40;2.72;;;;;;;;;;505063;28;1596;-79
2023/03/26 02:21:32;;;;;;;10.75;2.47;;;;;;;;;;506254;28;1202;-78
2023/03/26 02:22:03;;;;;;;10.38;2.42;;;;;;;;;;507809;28;1498;-78
2023/03/26 02:22:19;;;;;;;11.77;2.70;;;;;;;;;;501608;28;999;-78
2023/03/26 02:22:39;;;;;;;10.65;2.83;;;;;;;;;;506998;28;1333;-79
2023/03/26 02:23:00;;;;;;;9.50;2.60;;;;;;;;;;506641;28;1118;-78
2023/03/26 02:23:16;;;;;;;11.40;2.50;;;;;;;;;;504672;28;1365;-79
2023/03/26 02:23:35;;;;;;;12.48;2.60;;;;;;;;;;508270;28;939;-78
2023/03/26 02:24:01;;;;;;;11.15;2.90;;;;;;;;;;503376;28;1253;-78
2023/03/26 02:24:17;;;;;;;9.05;2.53;;;;;;;;;;502505;28;1309;-79
2023/03/26 02:24:37;;;;;;;9.75;2.67;;;;;;;;;;508299;28;1187;-78
2023/03/26 02:25:55;;;;;;;10.95;2.60;;;;;;;;;;502800;28;1257;-78
2023/03/26 02:26:12;;;;;;;11.40;2.78;;;;;;;;;;499308;28;1262;-78
2023/03/26 02:26:36;;;;;;;12.98;2.83;;;;;;;;;;499253;29;1302;-78
2023/03/26 02:27:04;;;;;;;;;;;;;;;;;;;;;
2023/03/26 02:27:40;;;;;;;10.25;2.78;;;;;;;;;;502370;28;1041;-78
2023/03/26 02:27:55;;;;;;;10.45;2.80;;;;;;;;;;503609;28;1818;-78
2023/03/26 02:28:11;;;;;;;9.23;2.43;;;;;;;;;;500440;28;1265;-78
2023/03/26 02:28:29;;;;;;;7.85;2.40;;;;;;;;;;504985;28;916;-79
2023/03/26 02:28:45;;;;;;;10.85;2.85;;;;;;;;;;503288;28;1090;-78
2023/03/26 02:29:02;;;;;;;13.00;3.00;;;;;;;;;;508216;28;1120;-78
2023/03/26 02:29:38;;;;;;;11.88;2.75;;;;;;;;;;502538;28;1304;-78
2023/03/26 02:29:54;;;;;;;9.15;2.80;;;;;;;;;;505653;28;1249;-78
2023/03/26 02:30:12;;;;;;;9.05;2.63;;;;;;;;;;503568;28;1080;-78
2023/03/26 02:30:28;;;;;;;10.75;2.88;;;;;;;;;;499160;28;1352;-78
2023/03/26 02:30:46;;;;;;;11.60;3.00;;;;;;;;;;504618;28;998;-77
2023/03/26 02:31:08;;;;;;;11.82;3.10;;;;;;;;;;502531;28;1358;-78
2023/03/26 02:31:30;;;;;;;10.38;2.72;;;;;;;;;;504128;28;1133;-78
2023/03/26 02:31:50;;;;;;;10.30;2.67;;;;;;;;;;507570;28;1568;-78
2023/03/26 02:32:06;;;;;;;12.27;2.78;;;;;;;;;;506805;28;1281;-78
2023/03/26 02:32:22;;;;;;;12.13;2.75;;;;;;;;;;509166;28;1080;-78
2023/03/26 02:32:58;;;;;;;10.75;2.75;;;;;;;;;;517314;28;1022;-78
2023/03/26 02:33:16;;;;;;;10.88;2.67;;;;;;;;;;502102;28;1363;-79
2023/03/26 02:33:35;;;;;;;11.13;2.83;;;;;;;;;;501576;28;1738;-78
2023/03/26 02:33:51;;;;;;;10.60;2.88;;;;;;;;;;507879;28;1258;-78
2023/03/26 02:34:10;;;;;;;10.45;2.95;;;;;;;;;;506743;28;991;-78
2023/03/26 02:34:37;;;;;;;12.38;2.78;;;;;;;;;;509120;28;1007;-78
2023/03/26 02:34:56;;;;;;;11.20;2.97;;;;;;;;;;506738;28;1185;-78
2023/03/26 02:35:22;;;;;;;;;;;;;;;;;;;;;
2023/03/26 02:35:38;;;;;;;10.63;2.53;;;;;;;;;;504703;28;1121;-78
2023/03/26 02:36:03;;;;;;;12.15;2.72;;;;;;;;;;508470;28;1133;-78
2023/03/26 02:36:26;;;;;;;10.85;2.60;;;;;;;;;;501040;28;1484;-79
2023/03/26 02:36:45;;;;;;;8.93;2.60;;;;;;;;;;502626;29;1261;-79
2023/03/26 02:37:01;;;;;;;9.15;2.60;;;;;;;;;;506063;28;1176;-79
2023/03/26 02:37:17;;;;;;;11.32;2.92;;;;;;;;;;500136;28;1038;-79
2023/03/26 02:37:33;;;;;;;11.85;2.70;;;;;;;;;;504822;28;1068;-79
2023/03/26 02:37:49;;;;;;;9.67;2.53;;;;;;;;;;502246;28;1079;-78
2023/03/26 02:38:08;;;;;;;9.85;2.80;;;;;;;;;;504215;28;1292;-78
2023/03/26 02:38:25;;;;;;;9.77;2.63;;;;;;;;;;503592;28;1186;-78
2023/03/26 02:38:41;;;;;;;11.27;2.58;;;;;;;;;;507127;28;2033;-78
2023/03/26 02:38:59;;;;;;;10.95;2.50;;;;;;;;;;509106;28;1194;-78
2023/03/26 02:39:14;;;;;;;8.95;2.42;;;;;;;;;;514841;28;1078;-79
2023/03/26 02:39:33;;;;;;;9.57;2.53;;;;;;;;;;509051;28;1181;-78
2023/03/26 02:39:50;;;;;;;11.90;2.92;;;;;;;;;;508561;28;1097;-78
2023/03/26 02:40:10;;;;;;;12.02;2.90;;;;;;;;;;505505;28;1254;-78
2023/03/26 02:40:29;;;;;;;11.02;2.63;;;;;;;;;;508838;28;1202;-78
2023/03/26 02:40:45;;;;;;;9.52;2.50;;;;;;;;;;515343;28;1165;-78
2023/03/26 02:41:23;;;;;;;8.13;2.60;;;;;;;;;;512220;28;1204;-78
2023/03/26 02:41:39;;;;;;;10.40;2.75;;;;;;;;;;509353;28;1225;-78
2023/03/26 02:41:55;;;;;;;10.25;2.90;;;;;;;;;;511861;28;1596;-78
2023/03/26 02:42:10;;;;;;;10.00;2.60;;;;;;;;;;505248;28;1048;-78
2023/03/26 02:42:36;;;;;;;10.75;2.45;;;;;;;;;;507467;28;1196;-77
2023/03/26 02:43:13;;;;;;;10.50;2.50;;;;;;;;;;518775;27;1221;-78
2023/03/26 02:43:28;;;;;;;11.50;2.60;;;;;;;;;;516279;28;1232;-78
2023/03/26 02:43:45;;;;;;;9.20;2.50;;;;;;;;;;514956;28;1085;-78
2023/03/26 02:44:00;;;;;;;9.10;2.55;;;;;;;;;;515689;28;1160;-78
2023/03/26 02:44:44;;;;;;;9.07;2.40;;;;;;;;;;510993;28;1085;-79
2023/03/26 02:45:04;;;;;;;9.45;2.47;;;;;;;;;;517938;28;1281;-78
2023/03/26 02:45:20;;;;;;;10.48;2.60;;;;;;;;;;514538;28;1010;-78
2023/03/26 02:45:36;;;;;;;10.48;2.60;;;;;;;;;;519330;28;1424;-78
2023/03/26 02:45:52;;;;;;;10.23;2.75;;;;;;;;;;520086;28;1029;-78
2023/03/26 02:46:11;;;;;;;11.13;2.70;;;;;;;;;;514552;28;1263;-78